Time;durP1;ratioP1;P1;durP2;ratioP2;P2;SDS_P1;SDS_P2;PMS_P1;PMS_P2;Temp;Humidity;BMP_temperature;BMP_pressure;BME280_temperature;BME280_humidity;BME280_pressure;Samples;Min_cycle;Max_cycle;Signal;HPM_P1;HPM_P2
2022/06/15 00:01:22;;;;;;;7.88;6.47;;;;;;;18.08;100.00;100646.84;4988708;28;20029;-70
2022/06/15 00:03:48;;;;;;;20.08;6.28;;;;;;;17.94;100.00;100624.09;4987811;28;20447;-69
2022/06/15 00:06:26;;;;;;;10.82;6.20;;;;;;;17.95;100.00;100622.34;4990887;28;20034;-68
2022/06/15 00:08:55;;;;;;;8.52;6.15;;;;;;;18.17;100.00;100653.88;4989712;28;20033;-73
2022/06/15 00:11:24;;;;;;;8.77;6.45;;;;;;;18.30;100.00;100649.66;4980251;28;20065;-68
2022/06/15 00:13:52;;;;;;;8.48;5.88;;;;;;;18.47;100.00;100642.81;4985178;28;20050;-66
2022/06/15 00:16:18;;;;;;;9.45;6.53;;;;;;;18.55;100.00;100633.25;4984223;28;20520;-72
2022/06/15 00:18:44;;;;;;;15.05;6.28;;;;;;;18.56;100.00;100644.63;4982265;28;20085;-69
2022/06/15 00:21:11;;;;;;;10.05;6.03;;;;;;;18.19;100.00;100586.84;4987174;28;20121;-70
2022/06/15 00:23:37;;;;;;;8.02;6.50;;;;;;;18.40;100.00;100625.31;4976386;28;20023;-66
2022/06/15 00:26:04;;;;;;;13.15;6.40;;;;;;;18.62;100.00;100649.00;4989631;28;20464;-70
2022/06/15 00:28:30;;;;;;;10.20;6.10;;;;;;;18.69;100.00;100648.19;4990825;28;20026;-70
2022/06/15 00:30:56;;;;;;;13.02;6.18;;;;;;;18.42;100.00;100628.84;4984310;28;20110;-67
2022/06/15 00:33:23;;;;;;;12.32;6.30;;;;;;;18.09;100.00;100633.81;4975016;28;20018;-70
2022/06/15 00:36:00;;;;;;;10.10;6.32;;;;;;;18.06;100.00;100635.53;4971086;28;20071;-68
2022/06/15 00:38:33;;;;;;;8.15;5.90;;;;;;;17.98;100.00;100637.19;4971071;28;20069;-70
2022/06/15 00:41:00;;;;;;;8.02;6.65;;;;;;;18.09;100.00;100635.53;4971453;28;20041;-69
2022/06/15 00:43:35;;;;;;;21.08;6.90;;;;;;;18.22;100.00;100642.63;4971635;28;20070;-70
2022/06/15 00:46:27;;;;;;;8.23;6.22;;;;;;;18.26;100.00;100633.94;4971254;28;20031;-67
2022/06/15 00:49:08;;;;;;;12.60;6.60;;;;;;;18.32;100.00;100650.50;4949477;29;20134;-70
2022/06/15 00:51:35;;;;;;;10.85;6.38;;;;;;;18.34;100.00;100649.66;4950000;29;20134;-71
2022/06/15 00:54:00;;;;;;;9.70;6.57;;;;;;;18.38;100.00;100637.50;4952035;28;20063;-68
2022/06/15 00:56:29;;;;;;;7.63;6.45;;;;;;;18.55;100.00;100640.25;4953552;29;20024;-68
2022/06/15 00:59:00;;;;;;;10.40;6.60;;;;;;;18.56;100.00;100636.78;4953557;29;20543;-70
2022/06/15 01:01:25;;;;;;;10.38;6.18;;;;;;;18.58;100.00;100640.28;4953336;29;20087;-68
2022/06/15 01:03:53;;;;;;;9.15;6.35;;;;;;;18.39;100.00;100614.00;4954047;29;20609;-70
2022/06/15 01:06:22;;;;;;;15.20;7.13;;;;;;;18.45;100.00;100621.00;4953796;29;20058;-70
2022/06/15 01:09:12;;;;;;;15.68;6.65;;;;;;;18.62;100.00;100649.00;4953761;29;20671;-70
2022/06/15 01:11:45;;;;;;;11.30;6.30;;;;;;;18.64;100.00;100644.66;4953388;29;20031;-70
2022/06/15 01:14:34;;;;;;;7.65;6.78;;;;;;;18.64;100.00;100652.50;4953380;29;20031;-70
2022/06/15 01:17:27;;;;;;;12.25;6.10;;;;;;;18.57;100.00;100644.63;4954129;29;20031;-69
2022/06/15 01:20:23;;;;;;;15.95;7.15;;;;;;;18.58;100.00;100650.75;4953685;29;20071;-71
2022/06/15 01:23:03;;;;;;;16.77;6.90;;;;;;;18.16;100.00;100620.81;4952510;29;20039;-71
2022/06/15 01:25:55;;;;;;;12.70;6.50;;;;;;;18.34;100.00;100647.06;4953921;28;20050;-72
2022/06/15 01:28:35;;;;;;;13.02;6.20;;;;;;;18.19;100.00;100621.66;4987013;28;20508;-72
2022/06/15 01:31:10;;;;;;;9.75;5.88;;;;;;;18.31;100.00;100638.34;4993317;28;20049;-70
2022/06/15 01:33:44;;;;;;;13.60;6.30;;;;;;;18.32;100.00;100647.91;4993528;28;20151;-72
2022/06/15 01:36:42;;;;;;;13.80;5.80;;;;;;;18.17;100.00;100656.50;4993961;28;20050;-69
2022/06/15 01:39:20;;;;;;;20.25;6.57;;;;;;;17.61;100.00;100661.16;4994020;28;20022;-69
2022/06/15 01:42:03;;;;;;;22.42;7.03;;;;;;;17.35;100.00;100651.28;4993934;28;20049;-68
2022/06/15 01:44:39;;;;;;;13.68;6.72;;;;;;;17.06;100.00;100620.50;4993837;28;20030;-67
2022/06/15 01:47:10;;;;;;;14.55;6.65;;;;;;;17.34;100.00;100662.56;4993675;28;20065;-72
2022/06/15 01:49:54;;;;;;;16.83;7.10;;;;;;;17.50;100.00;100640.16;4993991;28;20034;-69
2022/06/15 01:52:24;;;;;;;17.80;7.68;;;;;;;17.58;100.00;100651.56;4993889;28;20627;-69
2022/06/15 01:55:00;;;;;;;14.95;6.75;;;;;;;17.62;100.00;100655.09;4993755;28;20037;-69
2022/06/15 01:57:28;;;;;;;17.73;6.97;;;;;;;17.66;100.00;100659.47;4993623;28;20036;-71
2022/06/15 02:00:07;;;;;;;14.02;6.43;;;;;;;17.68;100.00;100665.56;4993848;28;20489;-69
2022/06/15 02:02:38;;;;;;;14.30;6.22;;;;;;;17.80;100.00;100664.84;4993585;28;20034;-71
2022/06/15 02:05:11;;;;;;;19.67;7.38;;;;;;;17.62;100.00;100662.91;4983935;28;20023;-68
2022/06/15 02:08:12;;;;;;;14.80;6.38;;;;;;;17.58;100.00;100671.56;4974023;28;20034;-72
2022/06/15 02:11:04;;;;;;;17.38;6.78;;;;;;;17.67;100.00;100663.84;4914604;29;20127;-68
2022/06/15 02:13:40;;;;;;;20.30;7.20;;;;;;;17.73;100.00;100660.41;4913972;29;20024;-68
2022/06/15 02:16:11;;;;;;;15.75;6.13;;;;;;;17.72;100.00;100666.47;4913925;29;20028;-69
2022/06/15 02:18:40;;;;;;;19.35;6.75;;;;;;;17.76;100.00;100674.38;4914067;29;20040;-69
2022/06/15 02:21:11;;;;;;;18.20;6.95;;;;;;;17.72;100.00;100649.09;4914109;29;20447;-68
2022/06/15 02:23:39;;;;;;;19.75;6.05;;;;;;;17.71;100.00;100662.13;4913998;29;20040;-69
2022/06/15 02:26:06;;;;;;;14.68;6.32;;;;;;;17.76;100.00;100666.53;4920441;29;20071;-72
2022/06/15 02:28:36;;;;;;;21.65;6.80;;;;;;;17.84;100.00;100674.44;4933079;29;20058;-69
2022/06/15 02:31:01;;;;;;;24.40;6.78;;;;;;;17.87;100.00;100681.44;4933058;29;20035;-70
2022/06/15 02:33:31;;;;;;;14.18;6.88;;;;;;;17.68;100.00;100675.16;4932819;29;20047;-69
2022/06/15 02:35:58;;;;;;;17.90;6.95;;;;;;;17.57;100.00;100675.91;4932861;29;20031;-69
2022/06/15 02:38:26;;;;;;;12.02;6.20;;;;;;;17.61;100.00;100669.00;4932790;29;20454;-68
2022/06/15 02:40:52;;;;;;;14.13;7.18;;;;;;;17.67;100.00;100676.00;4916924;29;20123;-69
2022/06/15 02:43:22;;;;;;;15.10;6.60;;;;;;;17.73;100.00;100682.19;4932467;29;20490;-72
2022/06/15 02:45:48;;;;;;;;;;;;;;;17.73;100.00;100679.56;4934990;28;20076;-68
2022/06/15 02:48:14;;;;;;;14.63;7.00;;;;;;;17.76;100.00;100674.38;4992713;28;20024;-69
2022/06/15 02:51:03;;;;;;;15.65;6.88;;;;;;;17.83;100.00;100684.88;4992873;28;20026;-69
2022/06/15 02:53:33;;;;;;;13.10;6.20;;;;;;;17.89;100.00;100698.00;4992808;28;20054;-69
2022/06/15 02:55:59;;;;;;;16.13;6.60;;;;;;;17.83;100.00;100693.59;4992561;28;20097;-69
2022/06/15 02:58:30;;;;;;;14.18;6.63;;;;;;;17.76;100.00;100691.78;4992705;28;20129;-68
2022/06/15 03:00:56;;;;;;;18.02;6.78;;;;;;;17.65;100.00;100686.44;4992561;28;20018;-72
2022/06/15 03:03:23;;;;;;;19.17;7.03;;;;;;;17.59;100.00;100687.22;4958458;28;20121;-68
2022/06/15 03:05:50;;;;;;;14.52;7.15;;;;;;;17.59;100.00;100692.44;4991108;28;20023;-68
2022/06/15 03:08:17;;;;;;;20.65;8.52;;;;;;;17.57;100.00;100680.25;4973401;28;20573;-70
2022/06/15 03:10:43;;;;;;;17.90;8.23;;;;;;;17.58;100.00;100697.66;4973161;28;20146;-68
2022/06/15 03:13:09;;;;;;;11.02;7.00;;;;;;;17.56;100.00;100700.25;4973093;28;20109;-68
2022/06/15 03:15:35;;;;;;;19.15;8.13;;;;;;;17.59;100.00;100699.41;4972327;28;20101;-69
2022/06/15 03:18:02;;;;;;;14.82;6.82;;;;;;;17.61;100.00;100709.00;4972811;28;20027;-69
2022/06/15 03:20:27;;;;;;;14.35;7.72;;;;;;;17.71;100.00;100703.91;4972619;28;20026;-71
2022/06/15 03:22:53;;;;;;;15.85;7.22;;;;;;;17.71;100.00;100703.91;4972661;28;20035;-69
2022/06/15 03:25:18;;;;;;;17.73;7.50;;;;;;;17.70;100.00;100717.81;4972562;28;20398;-69
2022/06/15 03:27:44;;;;;;;18.05;7.07;;;;;;;17.59;100.00;100718.56;4971421;28;20030;-69
2022/06/15 03:30:11;;;;;;;14.65;7.20;;;;;;;17.40;100.00;100717.47;4971374;28;20062;-69
2022/06/15 03:32:37;;;;;;;17.83;7.30;;;;;;;17.23;100.00;100726.78;4972607;28;20069;-71
2022/06/15 03:35:03;;;;;;;16.35;7.05;;;;;;;17.16;100.00;100720.63;4972626;28;20062;-69
2022/06/15 03:37:29;;;;;;;10.52;6.85;;;;;;;17.17;100.00;100732.81;4979577;28;20117;-69
2022/06/15 03:39:55;;;;;;;13.65;6.50;;;;;;;16.98;100.00;100721.22;4992030;28;20109;-71
2022/06/15 03:42:23;;;;;;;13.40;7.53;;;;;;;16.66;100.00;100735.50;4973519;28;20046;-71
2022/06/15 03:44:49;;;;;;;16.20;7.68;;;;;;;16.46;100.00;100721.25;4991967;28;20034;-72
2022/06/15 03:47:18;;;;;;;10.80;7.78;;;;;;;16.50;100.00;100707.44;4989603;28;20062;-67
2022/06/15 03:49:47;;;;;;;17.73;8.18;;;;;;;16.70;100.00;100745.97;4988078;28;20026;-69
2022/06/15 03:52:12;;;;;;;12.82;7.95;;;;;;;16.63;100.00;100711.97;4990163;28;20140;-71
2022/06/15 03:54:38;;;;;;;14.52;8.88;;;;;;;16.80;100.00;100706.16;4990399;28;20022;-70
2022/06/15 03:57:04;;;;;;;13.02;8.38;;;;;;;17.15;100.00;100742.34;4991635;28;20477;-68
2022/06/15 03:59:31;;;;;;;11.68;8.48;;;;;;;17.26;100.00;100739.91;4991451;28;20040;-69
2022/06/15 04:01:56;;;;;;;15.18;8.38;;;;;;;17.40;100.00;100732.25;4991409;28;20037;-68
2022/06/15 04:04:22;;;;;;;13.38;8.85;;;;;;;17.44;100.00;100716.63;4991354;28;20031;-69
2022/06/15 04:06:49;;;;;;;15.77;9.02;;;;;;;17.70;100.00;100730.88;4991180;28;20030;-71
2022/06/15 04:09:20;;;;;;;19.15;8.75;;;;;;;17.81;100.00;100744.03;4991454;28;20027;-68
2022/06/15 04:11:58;;;;;;;16.25;8.38;;;;;;;17.78;100.00;100742.28;4991369;28;20122;-70
2022/06/15 04:14:24;;;;;;;13.88;8.38;;;;;;;17.61;100.00;100737.72;4991369;28;20441;-68
2022/06/15 04:16:53;;;;;;;12.10;8.48;;;;;;;17.46;100.00;100745.38;4991098;28;20096;-72
2022/06/15 04:19:24;;;;;;;14.45;8.70;;;;;;;17.60;100.00;100745.56;4991151;28;20089;-71
2022/06/15 04:21:51;;;;;;;16.20;9.45;;;;;;;17.75;100.00;100742.25;4991169;28;20034;-69
2022/06/15 04:24:18;;;;;;;16.45;9.45;;;;;;;17.79;100.00;100733.59;4991295;28;20362;-68
2022/06/15 04:26:45;;;;;;;13.63;9.15;;;;;;;17.96;100.00;100736.44;4990943;28;20034;-69
2022/06/15 04:29:10;;;;;;;18.27;9.07;;;;;;;17.94;100.00;100718.13;4991073;28;20022;-71
2022/06/15 04:31:38;;;;;;;13.95;8.55;;;;;;;18.16;100.00;100743.59;4990765;28;20052;-70
2022/06/15 04:34:04;;;;;;;17.02;9.02;;;;;;;18.19;100.00;100749.72;4991350;28;20101;-69
2022/06/15 04:36:31;;;;;;;13.48;9.85;;;;;;;18.27;100.00;100745.44;4990728;28;20501;-72
2022/06/15 04:38:57;;;;;;;13.85;9.00;;;;;;;18.34;100.00;100745.50;4991047;28;20057;-69
2022/06/15 04:41:23;;;;;;;13.75;8.52;;;;;;;18.06;100.00;100724.34;4990906;28;20034;-71
2022/06/15 04:43:48;;;;;;;17.92;9.30;;;;;;;18.07;100.00;100729.56;4990908;28;20050;-72
2022/06/15 04:46:14;;;;;;;19.83;9.40;;;;;;;18.23;100.00;100738.44;4990898;28;20026;-68
2022/06/15 04:48:41;;;;;;;14.35;8.95;;;;;;;18.16;100.00;100749.69;4990993;28;20022;-68
2022/06/15 04:51:18;;;;;;;13.10;9.50;;;;;;;18.22;100.00;100755.00;4990514;28;20036;-69
2022/06/15 04:53:44;;;;;;;12.25;8.15;;;;;;;18.33;100.00;100749.88;4989083;28;20066;-69
2022/06/15 04:56:10;;;;;;;13.30;8.43;;;;;;;18.37;100.00;100756.00;4990799;28;20042;-68
2022/06/15 04:58:35;;;;;;;12.63;7.82;;;;;;;18.50;100.00;100765.69;4990615;28;20033;-69
2022/06/15 05:01:02;;;;;;;11.13;7.93;;;;;;;18.46;100.00;100747.38;4990467;28;20401;-72
2022/06/15 05:03:28;;;;;;;13.00;8.57;;;;;;;18.51;100.00;100738.69;4990618;28;20034;-67
2022/06/15 05:05:55;;;;;;;13.45;8.45;;;;;;;18.69;100.00;100758.91;4990701;28;20474;-72
2022/06/15 05:08:20;;;;;;;14.23;8.13;;;;;;;18.60;100.00;100756.19;4990711;28;20113;-69
2022/06/15 05:10:46;;;;;;;12.43;8.30;;;;;;;18.66;100.00;100753.63;4976680;28;20121;-70
2022/06/15 05:13:11;;;;;;;12.00;8.50;;;;;;;18.70;100.00;100744.06;4971147;28;20085;-68
2022/06/15 05:15:38;;;;;;;12.25;8.13;;;;;;;18.86;100.00;100739.84;4971006;28;20034;-71
2022/06/15 05:18:06;;;;;;;12.50;8.88;;;;;;;19.03;100.00;100758.31;4971229;28;20061;-67
2022/06/15 05:20:36;;;;;;;12.27;7.47;;;;;;;18.97;100.00;100739.97;4971356;28;20030;-69
2022/06/15 05:23:02;;;;;;;10.65;7.32;;;;;;;19.19;100.00;100764.50;4971574;28;20029;-71
2022/06/15 05:25:28;;;;;;;12.15;6.82;;;;;;;19.21;100.00;100761.03;4975318;28;20034;-68
2022/06/15 05:27:53;;;;;;;11.65;7.47;;;;;;;19.36;100.00;100775.94;4989835;28;20077;-70
2022/06/15 05:30:19;;;;;;;11.52;6.32;;;;;;;19.31;100.00;100743.63;4981638;28;20026;-68
2022/06/15 05:32:45;;;;;;;12.52;7.45;;;;;;;19.55;100.00;100763.84;4982723;28;20022;-68
2022/06/15 05:35:11;;;;;;;14.80;6.97;;;;;;;19.68;100.00;100771.75;4983361;28;20022;-71
2022/06/15 05:37:37;;;;;;;8.23;5.63;;;;;;;19.75;100.00;100777.88;4983403;28;20026;-70
2022/06/15 05:40:04;;;;;;;16.13;6.55;;;;;;;19.80;100.00;100784.91;4982887;28;20034;-70
2022/06/15 05:42:29;;;;;;;17.15;7.40;;;;;;;19.76;100.00;100762.16;4982781;28;20135;-71
2022/06/15 05:44:55;;;;;;;10.52;5.80;;;;;;;19.93;100.00;100796.31;4984820;28;20101;-71
2022/06/15 05:47:21;;;;;;;12.23;4.80;;;;;;;19.99;94.06;100788.50;4983212;28;20154;-73
2022/06/15 05:49:47;;;;;;;19.55;5.88;;;;;;;19.97;96.70;100778.88;4991310;28;20507;-70
2022/06/15 05:52:12;;;;;;;13.30;6.00;;;;;;;20.17;100.00;100795.50;4983576;28;20082;-72
2022/06/15 05:54:38;;;;;;;9.57;4.80;;;;;;;20.12;100.00;100784.16;4974536;28;20078;-69
2022/06/15 05:57:21;;;;;;;13.30;5.18;;;;;;;20.23;95.62;100796.44;4974171;28;20042;-70
2022/06/15 05:59:47;;;;;;;8.27;4.25;;;;;;;20.37;90.68;100802.56;4974559;28;20118;-72
2022/06/15 06:02:15;;;;;;;8.82;3.97;;;;;;;20.38;91.51;100800.81;4974451;28;20022;-73
2022/06/15 06:04:40;;;;;;;8.57;4.10;;;;;;;20.43;92.03;100805.19;4974284;28;20045;-69
2022/06/15 06:07:06;;;;;;;6.43;3.53;;;;;;;20.49;89.23;100815.69;4974067;28;20022;-68
2022/06/15 06:09:32;;;;;;;9.13;3.80;;;;;;;20.41;86.80;100793.84;4973845;28;20537;-68
2022/06/15 06:11:57;;;;;;;11.48;4.22;;;;;;;20.51;88.91;100813.97;4974389;28;20460;-68
2022/06/15 06:14:23;;;;;;;9.00;3.45;;;;;;;20.50;87.23;100803.47;4974199;28;20066;-69
2022/06/15 06:16:48;;;;;;;8.50;3.60;;;;;;;20.67;87.17;100824.44;4974335;28;20026;-71
2022/06/15 06:19:14;;;;;;;9.75;3.55;;;;;;;20.74;89.84;100822.75;4985930;28;20054;-68
2022/06/15 06:21:40;;;;;;;8.68;4.15;;;;;;;20.72;91.60;100816.63;4974241;28;20034;-69
2022/06/15 06:24:05;;;;;;;11.80;4.63;;;;;;;20.84;87.07;100825.38;4973677;28;20233;-71
2022/06/15 06:26:31;;;;;;;12.93;4.07;;;;;;;20.82;85.57;100826.25;4973897;28;20054;-71
2022/06/15 06:28:58;;;;;;;14.93;4.20;;;;;;;20.82;84.32;100794.75;4973955;28;20053;-69
2022/06/15 06:31:25;;;;;;;13.85;4.20;;;;;;;21.16;83.98;100826.25;4973536;28;20058;-69
2022/06/15 06:33:51;;;;;;;11.45;3.55;;;;;;;21.26;86.13;100830.59;4973447;28;20551;-71
2022/06/15 06:36:28;;;;;;;10.32;3.45;;;;;;;21.40;87.63;100827.09;4973570;28;20433;-70
2022/06/15 06:38:54;;;;;;;5.40;3.30;;;;;;;21.36;87.22;100822.69;4973489;28;20026;-69
2022/06/15 06:41:22;;;;;;;8.38;2.83;;;;;;;21.44;81.92;100820.94;4973609;28;20413;-70
2022/06/15 06:43:51;;;;;;;9.43;3.28;;;;;;;21.47;84.25;100828.81;4972399;28;20039;-70
2022/06/15 06:46:17;;;;;;;6.75;3.28;;;;;;;21.53;83.55;100823.53;4972298;28;20474;-69
2022/06/15 06:48:43;;;;;;;7.18;3.58;;;;;;;21.64;83.46;100827.03;4973402;28;20039;-69
2022/06/15 06:51:08;;;;;;;7.43;3.47;;;;;;;21.66;82.73;100821.78;4972352;28;20106;-69
2022/06/15 06:53:35;;;;;;;6.78;3.10;;;;;;;21.76;81.52;100818.25;4973040;28;20162;-69
2022/06/15 06:56:03;;;;;;;12.85;3.22;;;;;;;21.73;80.33;100802.50;4972115;28;20034;-68
2022/06/15 06:58:29;;;;;;;11.80;3.22;;;;;;;21.95;81.58;100833.94;4973626;28;20046;-71
2022/06/15 07:00:54;;;;;;;5.97;3.10;;;;;;;22.08;81.89;100829.50;4973175;28;20093;-69
2022/06/15 07:03:20;;;;;;;9.25;3.03;;;;;;;22.08;79.76;100804.09;4973143;28;20026;-70
2022/06/15 07:05:46;;;;;;;7.68;3.00;;;;;;;22.28;78.61;100824.13;4973123;28;20058;-69
2022/06/15 07:08:13;;;;;;;11.25;3.05;;;;;;;22.38;79.92;100833.75;4973026;28;20054;-69
2022/06/15 07:10:39;;;;;;;10.00;3.00;;;;;;;22.45;81.49;100830.22;4973124;28;20027;-68
2022/06/15 07:13:05;;;;;;;6.57;2.60;;;;;;;22.65;78.31;100828.31;4973066;28;20034;-71
2022/06/15 07:15:30;;;;;;;6.75;2.72;;;;;;;22.75;80.86;100827.34;4973065;28;20033;-71
2022/06/15 07:18:00;;;;;;;6.72;2.60;;;;;;;22.37;77.17;100825.81;4972855;28;20031;-72
2022/06/15 07:20:27;;;;;;;5.60;2.85;;;;;;;22.28;79.08;100830.28;4973026;28;20019;-71
2022/06/15 07:22:52;;;;;;;6.28;2.38;;;;;;;22.36;78.72;100830.22;4972699;28;20077;-72
2022/06/15 07:25:18;;;;;;;6.72;2.80;;;;;;;22.38;78.92;100824.97;4972661;28;20047;-70
2022/06/15 07:27:44;;;;;;;6.82;2.70;;;;;;;22.56;80.77;100832.75;4972798;28;20645;-69
2022/06/15 07:30:14;;;;;;;7.13;2.50;;;;;;;22.66;78.38;100828.31;4972494;28;20038;-72
2022/06/15 07:32:41;;;;;;;4.07;2.53;;;;;;;22.74;77.68;100826.50;4972801;28;20049;-73
2022/06/15 07:35:31;;;;;;;6.10;3.13;;;;;;;22.85;77.37;100831.66;4972382;28;20026;-68
2022/06/15 07:37:56;;;;;;;;;;;;;;;22.80;77.91;100825.56;4971645;28;20039;-69
2022/06/15 07:40:25;;;;;;;7.95;3.08;;;;;;;22.71;77.81;100831.78;4972740;28;19906;-69
2022/06/15 07:42:53;;;;;;;5.07;2.30;;;;;;;22.67;76.31;100826.53;4972319;28;20035;-69
2022/06/15 07:45:21;;;;;;;10.65;2.97;;;;;;;22.64;76.92;100830.06;4972147;28;20034;-69
2022/06/15 07:50:32;;;;;;;9.40;2.88;;;;;;;22.77;81.08;100831.72;4972385;28;20045;-69
2022/06/15 07:52:58;;;;;;;11.80;2.97;;;;;;;22.84;81.24;100818.50;4972319;28;20089;-69
2022/06/15 07:55:28;;;;;;;7.90;2.92;;;;;;;23.06;77.15;100830.59;4975211;28;20079;-69
2022/06/15 07:57:55;;;;;;;8.05;2.58;;;;;;;23.00;72.10;100811.38;4979177;28;20030;-69
2022/06/15 08:00:22;;;;;;;7.20;2.53;;;;;;;23.13;74.84;100831.44;4983769;28;20031;-69
2022/06/15 08:02:49;;;;;;;6.18;2.92;;;;;;;23.19;77.72;100826.16;4981513;28;20456;-74
2022/06/15 08:05:14;;;;;;;6.47;2.50;;;;;;;23.22;73.67;100833.16;4981928;28;20516;-69
2022/06/15 08:07:43;;;;;;;5.22;2.25;;;;;;;23.10;70.77;100821.81;4982913;28;20030;-70
2022/06/15 08:10:09;;;;;;;8.18;3.10;;;;;;;23.12;71.13;100829.69;4981293;28;20032;-69
2022/06/15 08:12:35;;;;;;;5.88;2.60;;;;;;;23.24;74.13;100829.59;4982029;28;20034;-69
2022/06/15 08:15:03;;;;;;;6.63;3.10;;;;;;;23.34;75.33;100822.47;4986936;28;20624;-69
2022/06/15 08:17:56;;;;;;;10.25;3.33;;;;;;;23.35;75.29;100818.97;4981168;28;20117;-67
2022/06/15 08:20:26;;;;;;;6.60;2.60;;;;;;;23.35;69.95;100824.22;4980308;28;20039;-69
2022/06/15 08:22:56;;;;;;;11.48;3.13;;;;;;;23.40;72.83;100829.44;4979970;28;20457;-70
2022/06/15 08:25:23;;;;;;;;;;;;;;;23.36;73.06;100827.72;4980957;28;20081;-68
2022/06/15 08:27:49;;;;;;;6.70;2.65;;;;;;;23.50;72.80;100824.94;4980652;28;19917;-71
2022/06/15 08:30:15;;;;;;;6.85;2.63;;;;;;;23.55;70.73;100816.13;4982099;28;20034;-69
2022/06/15 08:32:41;;;;;;;5.32;2.40;;;;;;;23.73;71.31;100833.47;4980474;28;20098;-70
2022/06/15 08:35:08;;;;;;;4.60;2.78;;;;;;;23.82;69.53;100834.25;4981098;28;20054;-70
2022/06/15 08:37:34;;;;;;;4.60;2.40;;;;;;;23.85;74.53;100819.28;4981886;28;20030;-70
2022/06/15 08:39:59;;;;;;;5.40;2.70;;;;;;;23.90;72.30;100820.06;4979440;28;20092;-71
2022/06/15 08:42:40;;;;;;;4.55;2.28;;;;;;;23.82;72.16;100831.63;4981828;28;20029;-71
2022/06/15 08:45:31;;;;;;;5.80;2.67;;;;;;;23.80;70.65;100823.72;4979944;28;20552;-68
2022/06/15 08:48:09;;;;;;;6.55;2.75;;;;;;;24.01;75.82;100824.38;4981702;28;20047;-70
2022/06/15 08:50:36;;;;;;;5.53;2.75;;;;;;;23.88;69.86;100799.91;4981446;28;20030;-71
2022/06/15 08:53:43;;;;;;;6.80;2.60;;;;;;;24.16;68.50;100823.28;4980013;28;20043;-71
2022/06/15 08:56:17;;;;;;;4.13;2.22;;;;;;;24.13;69.22;100826.84;4929928;29;20040;-69
2022/06/15 08:58:52;;;;;;;6.20;3.05;;;;;;;24.14;70.75;100807.50;4930053;29;20062;-72
2022/06/15 09:01:35;;;;;;;6.05;3.10;;;;;;;24.31;67.95;100822.19;4930441;29;20522;-69
2022/06/15 09:04:27;;;;;;;4.32;2.58;;;;;;;24.42;70.23;100822.06;4929952;29;20039;-72
2022/06/15 09:07:01;;;;;;;6.07;2.88;;;;;;;24.34;68.99;100819.53;4869606;29;20516;-70
2022/06/15 09:09:44;;;;;;;5.88;2.72;;;;;;;24.46;67.76;100823.75;4873863;29;20029;-69
2022/06/15 09:15:26;;;;;;;5.65;2.58;;;;;;;24.67;67.55;100823.47;4876042;29;20540;-71
2022/06/15 09:17:58;;;;;;;9.30;2.67;;;;;;;24.96;68.55;100832.66;4849266;29;20128;-71
2022/06/15 09:20:46;;;;;;;5.45;2.40;;;;;;;25.07;63.82;100824.53;4850663;29;20068;-70
2022/06/15 09:23:27;;;;;;;4.43;2.33;;;;;;;25.26;63.58;100822.44;4826152;29;20080;-71
2022/06/15 09:25:58;;;;;;;5.70;2.70;;;;;;;25.39;64.61;100817.81;4850328;29;20650;-71
2022/06/15 09:28:42;;;;;;;4.25;2.42;;;;;;;25.48;64.16;100816.78;4850207;29;20041;-70
2022/06/15 09:31:20;;;;;;;13.55;3.88;;;;;;;25.62;63.54;100817.38;4850032;29;20042;-70
2022/06/15 09:34:06;;;;;;;5.78;2.47;;;;;;;25.78;65.32;100809.13;4887133;29;20104;-71
2022/06/15 09:36:42;;;;;;;5.85;2.20;;;;;;;25.78;58.78;100806.47;4888479;29;20071;-70
2022/06/15 09:39:08;;;;;;;4.47;2.03;;;;;;;25.88;58.08;100810.66;4887282;29;20564;-71
2022/06/15 09:41:47;;;;;;;4.93;2.20;;;;;;;25.77;62.79;100808.28;4886431;29;20041;-71
2022/06/15 09:44:29;;;;;;;3.78;2.33;;;;;;;25.90;56.40;100803.56;4941721;28;20509;-70
2022/06/15 09:47:33;;;;;;;4.55;2.00;;;;;;;25.57;54.34;100806.03;4963661;28;20039;-68
2022/06/15 09:50:22;;;;;;;4.60;2.45;;;;;;;25.54;54.08;100773.50;4876545;29;20045;-71
2022/06/15 09:52:55;;;;;;;12.02;3.50;;;;;;;25.75;53.78;100775.69;4876527;29;20078;-69
2022/06/15 09:55:32;;;;;;;7.93;2.60;;;;;;;26.10;64.38;100803.16;4899092;29;20557;-70
2022/06/15 09:57:58;;;;;;;10.27;2.67;;;;;;;26.15;61.26;100789.84;4909988;29;20033;-68
2022/06/15 10:00:24;;;;;;;9.23;2.67;;;;;;;26.41;57.61;100788.38;4905501;29;20036;-71
2022/06/15 10:02:58;;;;;;;6.80;2.47;;;;;;;26.55;55.91;100793.31;4913936;29;20047;-70
2022/06/15 10:05:25;;;;;;;10.07;3.00;;;;;;;26.69;61.20;100799.13;4908073;29;20148;-70
2022/06/15 10:07:54;;;;;;;7.95;2.80;;;;;;;26.88;56.24;100802.25;4913760;29;20502;-70
2022/06/15 10:10:23;;;;;;;14.32;3.28;;;;;;;27.07;58.18;100796.47;4914003;29;20032;-68
2022/06/15 10:13:02;;;;;;;9.32;3.20;;;;;;;27.12;54.98;100789.25;4911238;29;20131;-71
2022/06/15 10:15:48;;;;;;;5.90;2.33;;;;;;;27.13;50.06;100762.72;4913385;29;20035;-68
2022/06/15 10:18:14;;;;;;;13.82;3.72;;;;;;;27.28;56.51;100787.91;4909493;29;20455;-69
2022/06/15 10:20:41;;;;;;;24.63;4.05;;;;;;;27.27;56.76;100788.81;4914151;29;20044;-69
2022/06/15 10:23:22;;;;;;;10.65;3.72;;;;;;;27.43;48.61;100781.34;4914063;29;20070;-68
2022/06/15 10:25:55;;;;;;;48.47;21.02;;;;;;;27.62;50.69;100774.66;4926964;28;20125;-70
2022/06/15 10:28:26;;;;;;;9.50;4.63;;;;;;;27.72;52.85;100782.28;4982902;28;20035;-71
2022/06/15 10:31:04;;;;;;;11.48;2.60;;;;;;;27.90;48.19;100778.22;4991801;28;20038;-69
2022/06/15 10:33:57;;;;;;;7.13;2.75;;;;;;;27.91;49.69;100779.97;4991538;28;20061;-69
2022/06/15 10:36:36;;;;;;;8.35;2.55;;;;;;;27.82;47.05;100752.84;4931365;29;20210;-71
2022/06/15 10:39:12;;;;;;;8.80;2.70;;;;;;;27.97;51.28;100755.00;4931261;29;20044;-72
2022/06/15 10:41:46;;;;;;;5.78;2.60;;;;;;;28.14;49.45;100773.09;4930906;29;20040;-69
2022/06/15 10:44:31;;;;;;;5.05;2.40;;;;;;;28.18;46.74;100765.91;4931549;29;20058;-69
2022/06/15 10:47:20;;;;;;;7.53;2.80;;;;;;;28.11;49.19;100780.28;4931806;29;20048;-70
2022/06/15 10:49:55;;;;;;;6.93;2.33;;;;;;;28.38;47.13;100770.56;4931393;29;20028;-72
2022/06/15 10:52:34;;;;;;;4.47;2.40;;;;;;;28.64;46.70;100777.69;4930236;29;20048;-73
2022/06/15 11:04:18;;;;;;;8.65;2.80;;;;;;;29.07;45.70;100740.78;4928079;29;20158;-70
2022/06/15 11:06:45;;;;;;;7.82;2.72;;;;;;;29.33;46.36;100761.13;4926439;29;20047;-69
2022/06/15 11:09:26;;;;;;;6.00;2.63;;;;;;;29.08;48.51;100769.13;4929449;29;20074;-72
2022/06/15 11:11:53;;;;;;;7.07;2.45;;;;;;;28.98;46.95;100762.41;4931819;29;20040;-70
2022/06/15 11:14:31;;;;;;;4.53;2.40;;;;;;;28.57;45.35;100755.78;4990209;28;20046;-69
2022/06/15 11:20:22;;;;;;;8.27;2.75;;;;;;;27.58;48.55;100750.88;4983845;28;20401;-72
2022/06/15 11:22:52;;;;;;;3.25;2.20;;;;;;;27.33;48.40;100766.59;4981317;28;20480;-70
2022/06/15 11:25:25;;;;;;;9.10;2.50;;;;;;;27.59;48.81;100707.53;4985440;28;20031;-71
2022/06/15 11:28:00;;;;;;;3.28;2.42;;;;;;;28.12;50.34;100750.19;4984912;28;20532;-69
2022/06/15 11:30:32;;;;;;;6.95;3.05;;;;;;;28.02;49.50;100754.88;4984822;28;20023;-71
2022/06/15 11:33:05;;;;;;;12.18;3.30;;;;;;;27.83;49.37;100705.03;4982962;28;20019;-69
2022/06/15 11:35:42;;;;;;;7.65;3.05;;;;;;;28.14;53.66;100729.75;4985497;28;20105;-70
2022/06/15 11:38:12;;;;;;;5.05;2.60;;;;;;;28.56;51.41;100742.53;4990240;28;20030;-70
2022/06/15 11:40:55;;;;;;;5.68;2.60;;;;;;;28.77;46.05;100748.91;4985058;28;20042;-66
2022/06/15 11:43:27;;;;;;;4.57;2.63;;;;;;;28.97;49.64;100742.91;4979407;28;20026;-67
2022/06/15 11:46:02;;;;;;;9.15;3.35;;;;;;;28.86;50.60;100740.66;4974608;28;20042;-70
2022/06/15 11:48:43;;;;;;;15.60;4.68;;;;;;;28.67;52.22;100739.50;4974517;28;20030;-68
2022/06/15 11:51:49;;;;;;;7.93;3.00;;;;;;;28.88;50.72;100709.56;4990077;28;20022;-70
2022/06/15 11:54:27;;;;;;;7.07;2.83;;;;;;;29.12;49.21;100730.84;4989443;28;20114;-65